Time;durP1;ratioP1;P1;durP2;ratioP2;P2;SDS_P1;SDS_P2;PMS_P1;PMS_P2;Temp;Humidity;BMP_temperature;BMP_pressure;BME280_temperature;BME280_humidity;BME280_pressure;Samples;Min_cycle;Max_cycle;Signal;HPM_P1;HPM_P2
2021/04/12 00:01:14;;;;;;;4.30;2.25;;;;;;;5.73;73.78;102010.81;5049844;28;20053;-46
2021/04/12 00:04:15;;;;;;;5.88;2.65;;;;;;;5.74;73.80;102012.47;5048968;28;20531;-46
2021/04/12 00:06:48;;;;;;;4.68;2.08;;;;;;;5.72;74.08;102017.44;5017953;28;20060;-50
2021/04/12 00:09:27;;;;;;;5.32;1.95;;;;;;;5.64;74.66;102023.50;5047908;28;20037;-47
2021/04/12 00:12:02;;;;;;;3.60;2.33;;;;;;;5.59;74.23;102032.56;5026287;28;20106;-45
2021/04/12 00:14:48;;;;;;;4.10;2.13;;;;;;;5.56;75.41;102029.59;5048027;28;20049;-49
2021/04/12 00:17:45;;;;;;;5.88;1.92;;;;;;;5.53;74.70;102029.03;5051189;28;20045;-46
2021/04/12 00:20:30;;;;;;;4.13;2.55;;;;;;;5.53;75.22;102031.75;5051772;28;20572;-48
2021/04/12 00:23:04;;;;;;;3.33;3.03;;;;;;;5.57;74.38;102036.69;5056637;28;20069;-47
2021/04/12 00:25:48;;;;;;;3.13;2.10;;;;;;;5.58;74.53;102035.59;5048967;28;20074;-46
2021/04/12 00:28:32;;;;;;;3.33;1.98;;;;;;;5.59;74.59;102037.28;5064910;28;20045;-45
2021/04/12 00:31:54;;;;;;;4.57;2.10;;;;;;;5.61;75.51;102040.56;5048103;28;20123;-47
2021/04/12 00:34:30;;;;;;;2.08;1.80;;;;;;;5.62;74.18;102040.25;5027523;28;20091;-48
2021/04/12 00:37:07;;;;;;;4.03;1.80;;;;;;;5.60;74.52;102036.16;5037412;28;20136;-49
2021/04/12 00:39:58;;;;;;;10.13;2.70;;;;;;;5.59;74.78;102037.28;5047048;28;20444;-47
2021/04/12 00:42:52;;;;;;;3.83;2.20;;;;;;;5.62;74.83;102039.44;5053730;28;20159;-45
2021/04/12 00:45:34;;;;;;;3.05;1.90;;;;;;;5.64;74.48;102043.53;5033869;28;20053;-48
2021/04/12 00:48:28;;;;;;;2.53;1.83;;;;;;;5.62;74.68;102045.75;5060033;28;20490;-46
2021/04/12 00:51:17;;;;;;;2.72;2.20;;;;;;;5.61;74.34;102043.28;5048245;28;20048;-50
2021/04/12 00:54:02;;;;;;;3.03;2.60;;;;;;;5.62;74.61;102047.66;5048859;28;20038;-50
2021/04/12 00:56:45;;;;;;;3.15;2.33;;;;;;;5.60;74.63;102045.22;5044486;28;20102;-48
2021/04/12 00:59:24;;;;;;;3.92;2.20;;;;;;;5.54;74.44;102052.66;5053369;28;20036;-45
2021/04/12 01:01:50;;;;;;;4.07;2.10;;;;;;;5.47;74.91;102051.31;5054411;28;20045;-49
2021/04/12 01:04:41;;;;;;;3.70;2.00;;;;;;;5.45;75.29;102046.06;5051066;28;20044;-47
2021/04/12 01:07:14;;;;;;;2.90;2.03;;;;;;;5.49;74.67;102044.44;5047081;28;20128;-46
2021/04/12 01:09:53;;;;;;;;;;;;;;;5.50;75.08;102051.56;5067186;28;20044;-48
2021/04/12 01:12:42;;;;;;;3.42;2.67;;;;;;;5.49;74.82;102052.66;5069355;28;20011;-47
2021/04/12 01:15:24;;;;;;;3.17;1.90;;;;;;;5.41;74.51;102047.75;5046580;28;20107;-45
2021/04/12 01:18:17;;;;;;;4.67;1.87;;;;;;;5.38;74.57;102047.47;5025085;28;20395;-46
2021/04/12 01:21:34;;;;;;;5.35;2.03;;;;;;;5.38;74.68;102048.31;5050634;28;20041;-48
2021/04/12 01:24:43;;;;;;;3.78;1.90;;;;;;;5.39;74.66;102046.38;4989127;28;20125;-47
2021/04/12 01:27:33;;;;;;;2.58;2.05;;;;;;;5.36;74.37;102049.69;5034360;28;20041;-49
2021/04/12 01:30:31;;;;;;;2.47;1.63;;;;;;;5.33;74.44;102047.50;5050640;28;20801;-46
2021/04/12 01:33:32;;;;;;;3.05;1.35;;;;;;;5.32;74.32;102048.59;5053147;28;20132;-47
2021/04/12 01:36:23;;;;;;;1.17;1.08;;;;;;;5.29;74.00;102055.47;5052097;28;20046;-49
2021/04/12 01:38:57;;;;;;;2.60;1.65;;;;;;;5.28;74.18;102053.00;5038143;28;20122;-50
2021/04/12 01:41:34;;;;;;;3.08;1.20;;;;;;;5.30;73.86;102050.78;5044991;28;20045;-48
2021/04/12 01:44:34;;;;;;;2.08;1.35;;;;;;;5.26;74.80;102050.53;5048188;28;20557;-48
2021/04/12 01:47:04;;;;;;;3.17;1.60;;;;;;;5.28;74.06;102059.31;5052902;28;20095;-49
2021/04/12 01:50:29;;;;;;;1.75;1.10;;;;;;;5.29;74.29;102049.16;5052055;28;20049;-47
2021/04/12 01:52:58;;;;;;;2.83;1.27;;;;;;;5.29;74.36;102066.47;4971673;28;20049;-48
2021/04/12 01:55:42;;;;;;;3.08;1.10;;;;;;;5.26;74.76;102060.69;4972245;28;20078;-49
2021/04/12 01:58:26;;;;;;;2.55;1.20;;;;;;;5.28;74.36;102064.81;5005811;28;20111;-51
2021/04/12 02:01:20;;;;;;;1.27;1.00;;;;;;;5.29;74.33;102069.22;5046753;28;20041;-48
2021/04/12 02:04:07;;;;;;;1.48;0.98;;;;;;;5.26;74.66;102067.00;5047600;28;20037;-49
2021/04/12 02:06:52;;;;;;;2.45;1.27;;;;;;;5.30;74.48;102068.09;5018031;28;20076;-52
2021/04/12 02:09:37;;;;;;;1.73;1.08;;;;;;;5.34;74.53;102058.22;5052477;28;20044;-46
2021/04/12 02:12:13;;;;;;;1.25;1.00;;;;;;;5.32;74.41;102065.88;5051700;28;20059;-48
2021/04/12 02:14:49;;;;;;;2.80;0.93;;;;;;;5.28;74.33;102074.97;5045550;28;20052;-54
2021/04/12 02:17:15;;;;;;;0.93;0.82;;;;;;;5.26;74.53;102072.50;5034379;28;20094;-47
2021/04/12 02:19:42;;;;;;;0.70;0.70;;;;;;;5.27;74.59;102068.63;5051751;28;20045;-51
2021/04/12 02:22:33;;;;;;;1.80;1.20;;;;;;;5.31;74.44;102061.50;5036483;28;20491;-47
2021/04/12 02:25:12;;;;;;;1.25;0.93;;;;;;;5.32;73.93;102068.63;5042805;28;20037;-48
2021/04/12 02:28:15;;;;;;;2.53;1.13;;;;;;;5.24;74.18;102058.22;5045102;28;20045;-46
2021/04/12 02:30:50;;;;;;;1.15;1.05;;;;;;;5.20;73.88;102062.63;5028201;28;20085;-48
2021/04/12 02:33:19;;;;;;;2.38;1.05;;;;;;;5.17;73.95;102067.84;5033352;28;20103;-49
2021/04/12 02:35:58;;;;;;;3.17;0.98;;;;;;;5.13;74.17;102073.06;5051640;28;20077;-49
2021/04/12 02:38:45;;;;;;;2.50;1.15;;;;;;;5.11;74.39;102077.19;5043337;28;20087;-50
2021/04/12 02:41:48;;;;;;;2.00;1.40;;;;;;;5.07;74.84;102074.16;5052388;28;20114;-49
2021/04/12 02:44:49;;;;;;;3.50;1.35;;;;;;;5.03;74.81;102077.75;5052017;28;20099;-49
2021/04/12 02:47:34;;;;;;;1.42;1.20;;;;;;;5.03;74.85;102075.81;5052071;28;20451;-48
2021/04/12 02:50:22;;;;;;;2.25;1.75;;;;;;;5.00;74.92;102081.88;5048832;28;20371;-47
2021/04/12 02:53:03;;;;;;;1.88;1.70;;;;;;;5.02;74.87;102079.66;5034707;28;20092;-47
2021/04/12 02:55:50;;;;;;;1.92;1.40;;;;;;;5.11;74.79;102082.69;5034320;28;20049;-48
2021/04/12 02:58:45;;;;;;;1.90;1.42;;;;;;;5.04;74.56;102080.22;5037460;28;20064;-49
2021/04/12 03:01:23;;;;;;;1.98;1.25;;;;;;;5.01;74.55;102075.28;5029854;28;20037;-48
2021/04/12 03:04:08;;;;;;;3.17;1.90;;;;;;;5.02;74.63;102081.59;5030641;28;20137;-47
2021/04/12 03:06:45;;;;;;;3.55;2.15;;;;;;;4.98;74.69;102081.31;5025583;28;20433;-48
2021/04/12 03:09:33;;;;;;;3.65;2.38;;;;;;;4.96;75.27;102072.53;5051424;28;20036;-50
2021/04/12 03:12:18;;;;;;;2.58;2.17;;;;;;;4.92;74.70;102082.44;5046382;28;20124;-51
2021/04/12 03:15:09;;;;;;;2.72;2.13;;;;;;;4.90;74.97;102070.88;5007367;28;20060;-50
2021/04/12 03:18:00;;;;;;;2.53;2.25;;;;;;;4.87;75.19;102076.94;5042092;28;20137;-51
2021/04/12 03:20:30;;;;;;;3.33;2.60;;;;;;;4.81;74.82;102067.06;5026000;28;20045;-47
2021/04/12 03:22:56;;;;;;;5.35;2.65;;;;;;;4.73;74.96;102067.59;5022642;28;20077;-50
2021/04/12 03:25:47;;;;;;;3.95;2.65;;;;;;;4.65;75.35;102068.97;5052023;28;20064;-51
2021/04/12 03:28:47;;;;;;;3.30;2.80;;;;;;;4.59;74.94;102081.03;5049321;28;20041;-52
2021/04/12 03:31:44;;;;;;;3.58;2.85;;;;;;;4.56;74.92;102084.31;5060072;28;20052;-52
2021/04/12 03:34:25;;;;;;;3.90;2.60;;;;;;;4.53;74.75;102084.03;5047822;28;20553;-48
2021/04/12 03:37:03;;;;;;;3.05;2.15;;;;;;;4.50;74.88;102081.84;5054028;28;20052;-51
2021/04/12 03:39:41;;;;;;;2.60;1.77;;;;;;;4.52;75.08;102087.88;5046512;28;20075;-53
2021/04/12 03:42:29;;;;;;;3.63;1.95;;;;;;;4.54;74.60;102083.78;5064299;28;20051;-48
2021/04/12 03:45:24;;;;;;;3.10;2.22;;;;;;;4.57;74.77;102085.13;5050217;28;20073;-49
2021/04/12 03:48:00;;;;;;;1.75;1.58;;;;;;;4.59;74.48;102088.44;5062356;28;20076;-49
2021/04/12 03:50:36;;;;;;;2.75;2.17;;;;;;;4.57;74.60;102088.72;5051564;28;20151;-47
2021/04/12 03:53:42;;;;;;;4.05;2.08;;;;;;;4.56;75.10;102088.97;5046755;28;20086;-54
2021/04/12 03:56:17;;;;;;;2.95;2.00;;;;;;;4.60;75.25;102090.09;5045877;28;20110;-48
2021/04/12 03:59:02;;;;;;;4.90;2.42;;;;;;;4.66;74.81;102103.50;5031540;28;20049;-48
2021/04/12 04:02:06;;;;;;;2.95;2.67;;;;;;;4.73;75.25;102095.88;5038731;28;20054;-51
2021/04/12 04:04:50;;;;;;;2.78;1.65;;;;;;;4.73;74.81;102106.00;5035925;28;20037;-52
2021/04/12 04:07:54;;;;;;;1.85;1.38;;;;;;;4.74;75.42;102107.63;5061791;28;20131;-52
2021/04/12 04:10:50;;;;;;;2.00;1.50;;;;;;;4.81;74.98;102102.72;5052597;28;20060;-51
2021/04/12 04:13:38;;;;;;;2.78;2.15;;;;;;;4.80;74.89;102101.06;5051139;28;20127;-52
2021/04/12 04:16:07;;;;;;;2.47;1.50;;;;;;;4.76;75.19;102105.47;5063905;28;20068;-52
2021/04/12 04:18:37;;;;;;;4.25;1.95;;;;;;;4.76;74.98;102111.78;5057788;28;20120;-50
2021/04/12 04:21:19;;;;;;;1.90;1.75;;;;;;;4.68;75.69;102109.59;5063618;28;20127;-51
2021/04/12 04:24:10;;;;;;;3.35;1.92;;;;;;;4.70;75.46;102106.56;5037292;28;20531;-52
2021/04/12 04:26:51;;;;;;;3.10;1.98;;;;;;;4.74;75.17;102108.47;5075030;28;20513;-51
2021/04/12 04:29:26;;;;;;;2.40;2.17;;;;;;;4.73;75.47;102106.84;5035288;28;20044;-50
2021/04/12 04:32:11;;;;;;;5.68;2.38;;;;;;;4.77;75.36;102107.91;5034795;28;20081;-49
2021/04/12 04:35:02;;;;;;;2.83;1.90;;;;;;;4.76;75.45;102110.97;5035208;28;20129;-51
2021/04/12 04:37:49;;;;;;;3.22;2.67;;;;;;;4.79;75.74;102110.41;5053574;28;20133;-48
2021/04/12 04:40:30;;;;;;;1.88;1.67;;;;;;;4.78;75.27;102100.53;5056029;28;20080;-48
2021/04/12 04:43:23;;;;;;;4.97;2.60;;;;;;;4.74;75.35;102110.38;5072859;28;20187;-50
2021/04/12 04:45:58;;;;;;;2.58;2.28;;;;;;;4.69;75.89;102121.34;5075025;28;20117;-50
2021/04/12 04:48:42;;;;;;;2.95;2.30;;;;;;;4.67;75.85;102113.41;5074871;28;20074;-47
2021/04/12 04:51:18;;;;;;;3.63;2.40;;;;;;;4.67;75.59;102118.06;5052927;28;20091;-50
2021/04/12 04:54:15;;;;;;;5.88;2.35;;;;;;;4.64;75.86;102118.59;5051633;28;20131;-50
2021/04/12 04:57:25;;;;;;;4.82;2.70;;;;;;;4.59;76.16;102124.91;5048272;28;20044;-49
2021/04/12 05:00:21;;;;;;;4.25;2.33;;;;;;;4.57;75.84;102118.88;5038070;28;20042;-51
2021/04/12 05:03:25;;;;;;;4.22;2.63;;;;;;;4.56;75.96;102135.59;5047615;28;20140;-50
2021/04/12 05:06:40;;;;;;;3.13;2.55;;;;;;;4.57;75.84;102134.50;5054184;28;20044;-52
2021/04/12 05:09:44;;;;;;;4.05;2.40;;;;;;;4.56;76.32;102138.34;5052864;28;20080;-48
2021/04/12 05:12:37;;;;;;;3.75;2.10;;;;;;;4.57;75.97;102140.00;5049523;28;20498;-47
2021/04/12 05:15:41;;;;;;;3.33;2.67;;;;;;;4.56;75.80;102149.31;5051282;28;20044;-48
2021/04/12 05:18:29;;;;;;;3.78;2.10;;;;;;;4.51;75.98;102141.06;5053294;28;20114;-52
2021/04/12 05:21:17;;;;;;;2.20;1.85;;;;;;;4.50;75.85;102144.94;5045283;28;20049;-47
2021/04/12 05:24:02;;;;;;;3.22;2.53;;;;;;;4.52;75.82;102142.72;5047956;28;20049;-53
2021/04/12 05:26:50;;;;;;;4.30;2.33;;;;;;;4.55;75.95;102158.66;5053878;28;20222;-46
2021/04/12 05:29:48;;;;;;;2.40;2.20;;;;;;;4.54;75.96;102157.00;5070196;28;20129;-46
2021/04/12 05:32:40;;;;;;;2.28;2.00;;;;;;;4.55;75.79;102169.63;5065523;28;20083;-49
2021/04/12 05:35:41;;;;;;;2.42;1.88;;;;;;;4.59;75.76;102165.22;5073679;28;20452;-51
2021/04/12 05:38:29;;;;;;;2.15;1.95;;;;;;;4.66;76.08;102174.84;4986836;28;20084;-52
2021/04/12 05:41:17;;;;;;;2.88;1.98;;;;;;;4.69;75.78;102173.47;5050136;28;20063;-46
2021/04/12 05:44:05;;;;;;;3.88;2.05;;;;;;;4.74;75.92;102184.44;5035062;28;20053;-51
2021/04/12 05:47:08;;;;;;;3.60;1.98;;;;;;;4.80;75.62;102183.38;5052184;28;20041;-51
2021/04/12 05:49:53;;;;;;;2.45;2.00;;;;;;;4.84;75.80;102184.50;5044328;28;20119;-51
2021/04/12 05:52:44;;;;;;;4.90;2.42;;;;;;;4.86;75.42;102183.13;5053009;28;20073;-52
2021/04/12 05:55:38;;;;;;;2.83;2.33;;;;;;;4.88;75.79;102185.59;5028848;28;20474;-47
2021/04/12 05:58:58;;;;;;;5.05;2.97;;;;;;;4.83;76.16;102188.31;5044984;28;20391;-51
2021/04/12 06:02:10;;;;;;;3.80;2.22;;;;;;;4.86;76.22;102194.09;5051978;28;20060;-50
2021/04/12 06:05:20;;;;;;;2.80;2.35;;;;;;;4.92;75.90;102200.44;5051016;28;20132;-49
2021/04/12 06:09:00;;;;;;;5.70;3.17;;;;;;;5.00;75.84;102199.88;5052886;28;20053;-47
2021/04/12 06:12:27;;;;;;;4.55;3.55;;;;;;;5.05;75.95;102213.63;4955287;28;20057;-52
2021/04/12 06:15:32;;;;;;;4.57;3.15;;;;;;;5.09;75.79;102214.72;5030322;28;20122;-48
2021/04/12 06:18:35;;;;;;;4.88;3.45;;;;;;;5.14;75.44;102222.94;5051143;28;20375;-52
2021/04/12 06:21:10;;;;;;;5.97;3.10;;;;;;;5.15;75.60;102223.78;5038032;28;20045;-48
2021/04/12 06:23:45;;;;;;;5.55;3.00;;;;;;;5.16;76.04;102220.78;5052598;28;20564;-52
2021/04/12 06:26:27;;;;;;;4.43;3.42;;;;;;;5.23;76.01;102228.72;5031248;28;20549;-53
2021/04/12 06:29:27;;;;;;;5.10;3.60;;;;;;;5.29;76.01;102233.13;5050913;28;20094;-51
2021/04/12 06:32:05;;;;;;;4.80;3.35;;;;;;;5.34;75.94;102233.97;5052600;28;20152;-52
2021/04/12 06:34:56;;;;;;;7.40;3.60;;;;;;;5.37;76.71;102244.41;5046553;28;20065;-47
2021/04/12 06:37:29;;;;;;;4.90;3.60;;;;;;;5.38;75.71;102239.72;4994988;28;20056;-47
2021/04/12 06:40:35;;;;;;;4.95;3.22;;;;;;;5.40;76.28;102243.03;5030651;28;20148;-49
2021/04/12 06:43:27;;;;;;;6.40;4.15;;;;;;;5.44;76.09;102244.94;5031805;28;20114;-46
2021/04/12 06:46:28;;;;;;;5.20;3.90;;;;;;;5.49;75.82;102244.94;5022801;28;20087;-50
2021/04/12 06:49:25;;;;;;;6.47;3.67;;;;;;;5.54;76.15;102247.69;5048573;28;20132;-47
2021/04/12 06:52:16;;;;;;;5.80;3.75;;;;;;;5.51;76.19;102256.47;5043233;28;20080;-47
2021/04/12 06:55:01;;;;;;;5.45;3.47;;;;;;;5.59;76.15;102251.53;5038328;28;20072;-49
2021/04/12 06:58:04;;;;;;;5.10;4.22;;;;;;;5.65;76.12;102258.66;5011427;28;20053;-45
2021/04/12 07:00:49;;;;;;;;;;;;;;;5.61;76.20;102254.84;5047881;28;20095;-47
2021/04/12 07:03:53;;;;;;;4.50;3.72;;;;;;;5.62;75.69;102256.47;5018749;28;19925;-51
2021/04/12 07:07:17;;;;;;;5.88;3.38;;;;;;;5.66;76.04;102266.66;5015737;28;20092;-47
2021/04/12 07:10:28;;;;;;;5.32;2.97;;;;;;;5.71;75.42;102265.81;5023976;28;20124;-50
2021/04/12 07:13:00;;;;;;;5.13;3.22;;;;;;;5.76;75.43;102265.81;5027403;28;20049;-48
2021/04/12 07:15:54;;;;;;;3.85;2.88;;;;;;;5.76;75.66;102263.88;5017383;28;20096;-47
2021/04/12 07:18:45;;;;;;;4.50;2.15;;;;;;;5.81;75.73;102261.13;5018521;28;20061;-52
2021/04/12 07:21:26;;;;;;;2.35;1.98;;;;;;;5.88;75.62;102260.88;5023806;28;20448;-48
2021/04/12 07:24:23;;;;;;;3.40;2.15;;;;;;;5.94;75.33;102259.75;5040553;28;20052;-51
2021/04/12 07:27:21;;;;;;;6.22;3.25;;;;;;;6.03;75.47;102274.59;5022207;28;20176;-49
2021/04/12 07:29:57;;;;;;;10.65;2.85;;;;;;;6.10;75.35;102277.88;5047782;28;20118;-45
2021/04/12 07:32:48;;;;;;;6.90;3.47;;;;;;;6.11;75.29;102268.53;5046871;28;20056;-50
2021/04/12 07:35:51;;;;;;;4.13;2.97;;;;;;;6.17;74.91;102281.16;5047572;28;20037;-45
2021/04/12 07:38:39;;;;;;;5.30;3.33;;;;;;;6.24;75.04;102275.38;5048108;28;20111;-46
2021/04/12 07:41:57;;;;;;;4.90;2.90;;;;;;;6.35;74.83;102277.84;5049837;28;20794;-46
2021/04/12 07:45:11;;;;;;;4.43;2.45;;;;;;;6.41;74.15;102264.88;5033418;28;20073;-46
2021/04/12 07:47:59;;;;;;;2.90;2.00;;;;;;;6.46;74.55;102276.69;5041972;28;20064;-48
2021/04/12 07:50:50;;;;;;;5.35;2.53;;;;;;;6.50;74.18;102280.53;5047970;28;20120;-49
2021/04/12 07:53:51;;;;;;;5.07;2.90;;;;;;;6.51;74.00;102284.91;5039618;28;20624;-47
2021/04/12 07:56:49;;;;;;;3.30;3.00;;;;;;;6.61;74.05;102292.31;5011401;28;20096;-48
2021/04/12 07:59:42;;;;;;;2.88;2.35;;;;;;;6.66;74.14;102284.88;5041210;28;20041;-47
2021/04/12 08:02:23;;;;;;;2.85;2.33;;;;;;;6.74;73.66;102291.72;5049595;28;20794;-46
2021/04/12 08:05:16;;;;;;;5.15;3.17;;;;;;;6.78;73.84;102297.50;5048585;28;20143;-48
2021/04/12 08:08:24;;;;;;;3.25;2.20;;;;;;;6.79;73.44;102299.94;5048337;28;20025;-47
2021/04/12 08:11:28;;;;;;;8.13;2.55;;;;;;;6.86;73.42;102294.16;4995552;28;20585;-46
2021/04/12 08:14:12;;;;;;;4.30;2.53;;;;;;;6.91;73.35;102296.88;5039925;28;20123;-48
2021/04/12 08:17:07;;;;;;;5.53;2.70;;;;;;;6.94;73.62;102304.53;5038788;28;20475;-48
2021/04/12 08:19:55;;;;;;;4.35;2.67;;;;;;;7.07;73.44;102301.19;5047799;28;20059;-48
2021/04/12 08:23:12;;;;;;;3.75;2.55;;;;;;;7.22;73.42;102303.84;5048893;28;20045;-46
2021/04/12 08:26:03;;;;;;;3.30;2.60;;;;;;;7.34;73.06;102307.06;5015022;28;20092;-46
2021/04/12 08:28:41;;;;;;;3.15;2.33;;;;;;;7.34;73.07;102302.41;5038326;28;20069;-46
2021/04/12 08:31:42;;;;;;;3.13;2.70;;;;;;;7.49;72.93;102307.00;5039605;28;20048;-47
2021/04/12 08:34:38;;;;;;;4.18;3.25;;;;;;;7.62;72.97;102303.59;5028865;28;20053;-47
2021/04/12 08:37:10;;;;;;;3.10;2.80;;;;;;;7.74;73.01;102316.97;5022783;28;20056;-51
2021/04/12 08:40:07;;;;;;;5.28;3.30;;;;;;;7.85;72.68;102313.03;5028317;28;20037;-49
2021/04/12 08:42:39;;;;;;;4.18;2.97;;;;;;;7.89;72.67;102320.44;5041763;28;20083;-46
2021/04/12 08:45:24;;;;;;;3.97;3.45;;;;;;;7.88;72.52;102316.03;5038946;28;20372;-51
2021/04/12 08:48:06;;;;;;;4.55;3.33;;;;;;;7.87;72.29;102311.63;5032818;28;20076;-50
2021/04/12 08:50:50;;;;;;;2.75;2.55;;;;;;;8.07;72.53;102320.84;5048476;28;20080;-48
2021/04/12 08:54:07;;;;;;;3.50;2.60;;;;;;;8.34;72.66;102316.44;5028563;28;20471;-48
2021/04/12 08:56:55;;;;;;;4.38;2.05;;;;;;;8.46;72.36;102319.63;5018539;28;20607;-46
2021/04/12 08:59:59;;;;;;;2.70;2.40;;;;;;;8.89;72.25;102323.28;5036255;28;20475;-50
2021/04/12 09:02:44;;;;;;;3.95;2.88;;;;;;;9.25;72.09;102325.53;5018947;28;20057;-50
2021/04/12 09:05:19;;;;;;;4.25;2.15;;;;;;;9.36;71.75;102332.56;5041503;28;20411;-51
2021/04/12 09:08:05;;;;;;;2.00;1.80;;;;;;;9.38;70.74;102333.91;5019641;28;20040;-47
2021/04/12 09:11:04;;;;;;;2.55;1.98;;;;;;;9.37;70.08;102340.56;5012226;28;20080;-53
2021/04/12 09:13:55;;;;;;;2.33;2.13;;;;;;;9.38;69.88;102342.22;5034593;28;20102;-49
2021/04/12 09:16:48;;;;;;;3.72;2.00;;;;;;;9.25;69.39;102347.66;5021534;28;20051;-47
2021/04/12 09:19:49;;;;;;;4.45;1.95;;;;;;;9.06;68.88;102336.56;5036760;28;20375;-47
2021/04/12 09:22:41;;;;;;;2.30;1.92;;;;;;;8.75;68.59;102346.38;5044394;28;20100;-47
2021/04/12 09:25:29;;;;;;;4.82;2.13;;;;;;;8.66;68.72;102346.19;5031500;28;20073;-48
2021/04/12 09:27:56;;;;;;;4.15;1.70;;;;;;;8.74;68.89;102350.22;5029093;28;20473;-49
2021/04/12 09:30:59;;;;;;;5.43;2.03;;;;;;;8.94;68.57;102353.59;5040041;28;20167;-49
2021/04/12 09:33:44;;;;;;;1.85;1.60;;;;;;;9.02;68.53;102355.72;5052044;28;20098;-49
2021/04/12 09:36:36;;;;;;;1.90;1.70;;;;;;;8.95;67.91;102357.16;5031653;28;20152;-48
2021/04/12 09:39:21;;;;;;;;;;;;;;;8.79;67.59;102350.19;5053866;28;20041;-54
2021/04/12 09:42:33;;;;;;;1.48;1.38;;;;;;;8.74;68.47;102353.81;5066506;28;19925;-47
2021/04/12 09:45:24;;;;;;;2.92;1.73;;;;;;;8.87;68.21;102355.88;5052797;28;20045;-51
2021/04/12 09:48:12;;;;;;;2.28;1.13;;;;;;;8.93;67.29;102354.69;5061394;28;20052;-51
2021/04/12 09:50:45;;;;;;;2.40;1.40;;;;;;;8.90;67.64;102360.81;5036973;28;20076;-49
2021/04/12 09:53:14;;;;;;;;;;;;;;;8.78;67.26;102354.88;5034463;28;20040;-51
2021/04/12 09:56:22;;;;;;;2.75;1.40;;;;;;;8.72;67.51;102358.81;5021699;28;19925;-48
2021/04/12 09:59:36;;;;;;;8.60;2.50;;;;;;;8.56;67.69;102360.09;5050988;28;20076;-50
2021/04/12 10:02:02;;;;;;;5.50;1.70;;;;;;;8.52;67.97;102370.09;4972748;28;20062;-51
2021/04/12 10:04:37;;;;;;;2.08;1.65;;;;;;;8.54;67.88;102362.34;5049037;28;20092;-49
2021/04/12 10:07:33;;;;;;;3.75;2.22;;;;;;;9.08;67.55;102364.75;5051212;28;20103;-49
2021/04/12 10:10:21;;;;;;;6.45;2.53;;;;;;;10.01;67.04;102373.03;5049000;28;20045;-50
2021/04/12 10:13:16;;;;;;;3.22;1.35;;;;;;;10.62;64.98;102366.44;5053966;28;20052;-50
2021/04/12 10:16:03;;;;;;;1.60;1.20;;;;;;;10.89;63.81;102369.22;5036954;28;20114;-50
2021/04/12 10:19:06;;;;;;;1.60;0.95;;;;;;;10.71;63.96;102370.16;5049035;28;20123;-49
2021/04/12 10:22:00;;;;;;;1.67;1.00;;;;;;;10.52;63.34;102372.19;5050976;28;20044;-49
2021/04/12 10:24:29;;;;;;;2.42;1.25;;;;;;;10.42;63.47;102372.38;5021033;28;20088;-48
2021/04/12 10:27:07;;;;;;;2.00;1.08;;;;;;;10.65;63.71;102374.16;5046397;28;20033;-50
2021/04/12 10:30:07;;;;;;;2.50;1.10;;;;;;;11.02;62.37;102376.72;5054255;28;20065;-52
2021/04/12 10:32:40;;;;;;;3.55;0.70;;;;;;;11.14;62.11;102381.75;5038109;28;20042;-49
2021/04/12 10:35:13;;;;;;;3.50;0.90;;;;;;;11.05;62.09;102381.66;5037062;28;20041;-49
2021/04/12 10:37:52;;;;;;;7.07;3.08;;;;;;;10.96;61.53;102376.00;5046258;28;20073;-47
2021/04/12 10:40:31;;;;;;;4.25;1.45;;;;;;;10.81;61.45;102383.81;5030325;28;20155;-55
2021/04/12 10:43:19;;;;;;;7.38;1.48;;;;;;;10.63;60.31;102380.00;5036834;28;20048;-52
2021/04/12 10:46:03;;;;;;;1.85;0.50;;;;;;;10.96;61.48;102375.22;5015692;28;20063;-50
2021/04/12 10:48:49;;;;;;;5.43;1.13;;;;;;;11.38;59.28;102379.56;5020548;28;20037;-52
2021/04/12 10:51:24;;;;;;;2.95;0.80;;;;;;;11.82;60.43;102379.69;5027563;28;20776;-51
2021/04/12 10:54:11;;;;;;;1.95;0.70;;;;;;;12.33;58.07;102372.88;5048726;28;20068;-49
2021/04/12 10:57:12;;;;;;;6.35;0.68;;;;;;;12.64;57.45;102374.50;5023577;28;20088;-51
2021/04/12 10:59:57;;;;;;;5.72;1.60;;;;;;;12.77;56.96;102365.25;5035885;28;20051;-51
2021/04/12 11:02:36;;;;;;;1.67;0.55;;;;;;;12.72;56.62;102373.72;5049219;28;20077;-51
2021/04/12 11:05:15;;;;;;;2.55;0.85;;;;;;;12.54;57.24;102374.78;5049700;28;20056;-52
2021/04/12 11:08:15;;;;;;;2.63;1.00;;;;;;;12.35;55.38;102368.63;5052354;28;20403;-54
2021/04/12 11:11:15;;;;;;;3.45;0.90;;;;;;;12.32;56.34;102371.22;5036829;28;20037;-50
2021/04/12 11:13:54;;;;;;;2.75;1.23;;;;;;;12.08;57.15;102371.53;5046497;28;20095;-52
2021/04/12 11:16:38;;;;;;;1.73;1.00;;;;;;;11.97;57.87;102370.97;5035313;28;20044;-51
2021/04/12 11:19:59;;;;;;;4.35;2.45;;;;;;;11.70;56.99;102376.66;5052595;28;20043;-51
2021/04/12 11:22:25;;;;;;;4.85;1.38;;;;;;;11.37;57.73;102378.75;4980487;28;20390;-50
2021/04/12 11:25:11;;;;;;;2.35;1.83;;;;;;;11.02;58.01;102373.94;5041512;28;20065;-49
2021/04/12 11:27:40;;;;;;;2.88;1.55;;;;;;;10.90;58.31;102366.19;5050295;28;20053;-51
2021/04/12 11:30:37;;;;;;;5.15;2.25;;;;;;;10.85;58.67;102366.28;5048891;28;20090;-52
2021/04/12 11:33:10;;;;;;;3.22;1.55;;;;;;;10.88;59.17;102373.16;5038525;28;20450;-47
2021/04/12 11:35:51;;;;;;;4.97;2.70;;;;;;;10.92;59.35;102377.75;5038361;28;20048;-47
2021/04/12 11:38:24;;;;;;;9.50;1.90;;;;;;;11.05;59.63;102376.09;5047876;28;20059;-47
2021/04/12 11:41:11;;;;;;;3.85;1.67;;;;;;;11.20;59.52;102377.75;5040668;28;20291;-48
2021/04/12 11:43:45;;;;;;;3.33;1.00;;;;;;;11.05;60.19;102387.19;5053410;28;20044;-49
2021/04/12 11:46:20;;;;;;;3.13;1.02;;;;;;;10.91;60.12;102380.81;5034222;28;20049;-48
2021/04/12 11:48:54;;;;;;;2.85;1.02;;;;;;;10.82;59.96;102371.59;5010306;28;20049;-50
2021/04/12 11:51:51;;;;;;;3.30;0.80;;;;;;;10.76;59.78;102379.19;5019822;28;20053;-52
2021/04/12 11:54:29;;;;;;;0.82;0.50;;;;;;;10.92;59.11;102376.94;5033853;28;20119;-46
2021/04/12 11:57:11;;;;;;;1.33;1.23;;;;;;;11.10;58.89;102384.31;4993830;28;20045;-49
2021/04/12 11:59:51;;;;;;;1.00;0.57;;;;;;;11.22;57.77;102370.78;5039325;28;20107;-51
2021/04/12 12:02:55;;;;;;;4.05;0.82;;;;;;;11.40;55.71;102372.59;5028853;28;20049;-50
2021/04/12 12:05:35;;;;;;;2.13;0.65;;;;;;;11.49;56.81;102375.44;5022582;28;20454;-48
2021/04/12 12:08:12;;;;;;;0.88;0.60;;;;;;;11.55;57.11;102383.31;5060523;28;20473;-52
2021/04/12 12:10:53;;;;;;;3.00;0.55;;;;;;;11.73;57.33;102364.91;5042857;28;20052;-50
2021/04/12 12:13:28;;;;;;;1.70;0.52;;;;;;;11.86;56.77;102374.34;5047623;28;20052;-50
2021/04/12 12:16:11;;;;;;;6.03;0.60;;;;;;;11.93;56.86;102369.16;5044275;28;20037;-49
2021/04/12 12:18:43;;;;;;;4.32;0.90;;;;;;;12.05;57.38;102367.44;5028846;28;20475;-50
2021/04/12 12:21:25;;;;;;;4.32;1.63;;;;;;;12.14;56.41;102362.78;5065533;28;20115;-48
2021/04/12 12:24:01;;;;;;;5.47;0.82;;;;;;;12.08;56.08;102366.81;5042187;28;20044;-46
2021/04/12 12:26:50;;;;;;;6.47;0.93;;;;;;;12.13;56.36;102369.47;5051868;28;20064;-53
2021/04/12 12:29:51;;;;;;;2.80;0.60;;;;;;;12.23;54.00;102369.19;5051026;28;20555;-45
2021/04/12 12:32:25;;;;;;;7.07;0.80;;;;;;;12.08;56.08;102363.22;5020319;28;21023;-47
2021/04/12 12:35:11;;;;;;;3.50;1.33;;;;;;;12.15;55.83;102366.38;5031693;28;20041;-52
2021/04/12 12:37:54;;;;;;;1.42;0.60;;;;;;;12.26;55.56;102369.72;5031462;28;20137;-49
2021/04/12 12:40:27;;;;;;;3.17;0.80;;;;;;;12.44;55.16;102358.41;5048271;28;20418;-48
2021/04/12 12:43:04;;;;;;;8.07;1.08;;;;;;;12.75;54.83;102363.94;5015587;28;20577;-45
2021/04/12 12:45:41;;;;;;;0.73;0.70;;;;;;;12.85;54.72;102360.88;5032599;28;20042;-47
2021/04/12 12:48:22;;;;;;;4.05;1.73;;;;;;;12.65;54.22;102367.81;5014914;28;20486;-46
2021/04/12 12:51:14;;;;;;;3.55;1.75;;;;;;;12.42;53.98;102380.09;5027181;28;20140;-46
2021/04/12 12:53:46;;;;;;;5.78;2.47;;;;;;;11.96;55.59;102383.25;5003869;28;20050;-49
2021/04/12 12:56:23;;;;;;;3.35;2.40;;;;;;;11.55;56.74;102382.50;5035957;28;20048;-48
2021/04/12 12:58:56;;;;;;;3.83;2.10;;;;;;;11.29;57.46;102379.47;5025423;28;20839;-55
2021/04/12 13:01:31;;;;;;;5.50;2.70;;;;;;;11.18;58.20;102383.59;5020065;28;20065;-48
2021/04/12 13:04:18;;;;;;;4.00;2.25;;;;;;;11.15;59.39;102388.94;5036085;28;20041;-52
2021/04/12 13:06:47;;;;;;;4.00;2.50;;;;;;;11.14;58.49;102382.59;5012081;28;20617;-49
2021/04/12 13:09:32;;;;;;;5.55;2.17;;;;;;;11.06;59.00;102388.84;5029293;28;20475;-50